Time;durP1;ratioP1;P1;durP2;ratioP2;P2;SDS_P1;SDS_P2;PMS_P1;PMS_P2;Temp;Humidity;BMP_temperature;BMP_pressure;BME280_temperature;BME280_humidity;BME280_pressure;Samples;Min_cycle;Max_cycle;Signal;HPM_P1;HPM_P2
2022/07/01 00:02:08;;;;;;;2.13;1.08;;;16.70;99.90;;;16.83;100.00;100576.06;4972692;28;20050;-80
2022/07/01 00:04:38;;;;;;;2.88;1.15;;;16.70;99.90;;;16.91;100.00;100562.41;4977231;28;20054;-79
2022/07/01 00:07:23;;;;;;;3.83;1.20;;;16.70;99.90;;;16.86;100.00;100552.00;4981394;28;20060;-80
2022/07/01 00:09:50;;;;;;;2.20;1.13;;;17.70;99.90;;;16.88;100.00;100571.38;4972357;28;20058;-79
2022/07/01 00:12:17;;;;;;;2.53;1.15;;;16.80;99.90;;;16.76;100.00;100571.94;4966557;28;20149;-79
2022/07/01 00:14:44;;;;;;;3.22;1.02;;;16.80;99.90;;;16.73;100.00;100583.59;4958967;28;20133;-80
2022/07/01 00:17:11;;;;;;;1.48;1.00;;;16.80;99.90;;;16.71;100.00;100583.66;4952675;28;20054;-79
2022/07/01 00:19:41;;;;;;;3.25;1.10;;;16.70;99.90;;;16.68;100.00;100581.16;4979823;28;20475;-80
2022/07/01 00:22:08;;;;;;;4.40;0.80;;;16.80;99.90;;;16.79;100.00;100582.47;4992735;28;20073;-79
2022/07/01 00:24:35;;;;;;;2.25;1.00;;;16.70;99.90;;;16.74;100.00;100598.59;4967614;28;20609;-79
2022/07/01 00:27:03;;;;;;;2.67;0.80;;;16.70;99.90;;;16.71;100.00;100615.53;4973817;28;20046;-79
2022/07/01 00:29:30;;;;;;;3.88;1.30;;;16.70;99.90;;;16.71;100.00;100620.00;4975761;28;20049;-80
2022/07/01 00:31:57;;;;;;;6.25;1.10;;;16.70;99.90;;;16.75;100.00;100626.91;4961239;28;20050;-80
2022/07/01 00:34:24;;;;;;;0.85;0.80;;;16.70;99.90;;;16.76;100.00;100627.75;4984048;28;20485;-80
2022/07/01 00:36:51;;;;;;;1.73;0.90;;;16.80;99.90;;;16.69;100.00;100624.50;4992716;28;20046;-79
2022/07/01 00:39:18;;;;;;;1.83;1.10;;;16.70;99.90;;;16.72;100.00;100635.03;4959946;28;20050;-79
2022/07/01 00:41:45;;;;;;;2.10;0.85;;;16.70;99.90;;;16.69;100.00;100629.81;4974783;28;20053;-80
2022/07/01 00:44:20;;;;;;;2.20;1.00;;;16.70;99.90;;;16.73;100.00;100621.66;4973742;28;20043;-80
2022/07/01 00:46:51;;;;;;;2.33;0.93;;;16.70;99.90;;;16.77;100.00;100629.47;4975916;28;20042;-79
2022/07/01 00:49:19;;;;;;;2.25;0.90;;;16.70;99.90;;;16.75;100.00;100623.38;4990938;28;20038;-79
2022/07/01 00:51:47;;;;;;;2.85;1.15;;;16.60;99.90;;;16.70;100.00;100643.03;4976491;28;20114;-79
2022/07/01 00:54:15;;;;;;;4.47;1.10;;;17.00;99.90;;;16.67;100.00;100639.66;4958797;28;20618;-79
2022/07/01 00:56:42;;;;;;;1.45;1.00;;;16.70;99.90;;;16.74;100.00;100641.13;4976141;28;20042;-80
2022/07/01 00:59:09;;;;;;;1.08;0.82;;;16.60;99.90;;;16.70;100.00;100635.06;4974994;28;20093;-79
2022/07/01 01:01:36;;;;;;;1.40;1.02;;;16.60;99.90;;;16.76;100.00;100630.41;4988789;28;20042;-79
2022/07/01 01:04:03;;;;;;;1.27;0.80;;;16.60;99.90;;;16.58;100.00;100635.63;4970918;28;20120;-79
2022/07/01 01:06:30;;;;;;;2.60;0.93;;;16.60;99.90;;;16.62;100.00;100625.72;4986721;28;20050;-78
2022/07/01 01:08:57;;;;;;;1.25;0.82;;;16.60;99.90;;;16.59;100.00;100632.91;4980009;28;20050;-79
2022/07/01 01:11:25;;;;;;;2.35;1.20;;;16.60;99.90;;;16.67;100.00;100651.16;4971384;28;20031;-78
2022/07/01 01:13:52;;;;;;;8.45;1.95;;;16.60;99.90;;;16.77;100.00;100650.72;4973719;28;20395;-78
2022/07/01 01:16:21;;;;;;;0.95;0.80;;;17.50;99.90;;;16.63;100.00;100638.97;4968214;28;20117;-78
2022/07/01 01:18:49;;;;;;;2.10;1.20;;;16.60;99.90;;;16.64;100.00;100646.00;4979886;28;20034;-78
2022/07/01 01:21:17;;;;;;;2.42;0.70;;;16.60;99.90;;;16.63;100.00;100657.56;4966552;28;20050;-79
2022/07/01 01:23:44;;;;;;;0.90;0.73;;;16.70;99.90;;;16.62;100.00;100641.66;4970553;28;20046;-77
2022/07/01 01:26:21;;;;;;;2.88;0.85;;;17.30;99.90;;;16.52;100.00;100636.75;4979708;28;20042;-79
2022/07/01 01:28:50;;;;;;;2.25;0.93;;;16.50;99.90;;;16.46;100.00;100623.75;4971999;28;20053;-79
2022/07/01 01:31:28;;;;;;;2.25;1.20;;;16.50;99.90;;;16.59;100.00;100618.75;4987939;28;20034;-78
2022/07/01 01:33:56;;;;;;;1.00;0.85;;;16.50;99.90;;;16.57;100.00;100626.81;4969810;28;20045;-78
2022/07/01 01:36:23;;;;;;;1.42;1.00;;;16.50;99.90;;;16.49;100.00;100618.31;4980152;28;20050;-79
2022/07/01 01:38:51;;;;;;;2.75;1.25;;;16.60;99.90;;;16.48;100.00;100618.41;4971071;28;20130;-78
2022/07/01 01:41:18;;;;;;;2.03;1.00;;;16.50;99.90;;;16.46;100.00;100621.09;4978652;28;20049;-78
2022/07/01 01:43:45;;;;;;;2.00;0.90;;;16.40;99.90;;;16.50;100.00;100622.69;4983336;28;20516;-79
2022/07/01 01:46:13;;;;;;;1.13;0.90;;;16.40;99.90;;;16.47;100.00;100625.50;4970688;28;20072;-79
2022/07/01 01:48:40;;;;;;;2.08;0.82;;;16.80;99.90;;;16.49;100.00;100622.78;4980078;28;20108;-78
2022/07/01 01:51:07;;;;;;;3.10;0.77;;;16.50;99.90;;;16.52;100.00;100633.25;4968723;28;20038;-78
2022/07/01 01:53:34;;;;;;;1.05;0.80;;;16.40;99.90;;;16.44;100.00;100626.47;4969496;28;21018;-78
2022/07/01 01:56:01;;;;;;;2.08;0.70;;;16.40;99.90;;;16.55;100.00;100623.38;4980851;28;20127;-78
2022/07/01 01:58:28;;;;;;;1.63;0.98;;;17.00;99.90;;;16.46;100.00;100631.72;4988915;28;20388;-78
2022/07/01 02:00:55;;;;;;;1.67;0.88;;;16.40;99.90;;;16.41;100.00;100636.41;4971173;28;20053;-78
2022/07/01 02:03:22;;;;;;;0.68;0.57;;;16.40;99.90;;;16.36;100.00;100625.97;4956799;28;20057;-78
2022/07/01 02:05:50;;;;;;;0.85;0.75;;;16.40;99.90;;;16.37;100.00;100616.19;4985240;28;20055;-78
2022/07/01 02:08:17;;;;;;;1.83;0.85;;;16.40;99.90;;;16.34;100.00;100613.69;4973083;28;20137;-78
2022/07/01 02:10:45;;;;;;;1.48;0.88;;;16.30;99.90;;;16.35;100.00;100610.97;4971861;28;20042;-78
2022/07/01 02:13:12;;;;;;;1.58;0.88;;;16.50;99.90;;;16.37;100.00;100598.47;4971228;28;20046;-78
2022/07/01 02:15:39;;;;;;;3.47;1.45;;;16.30;99.90;;;16.14;100.00;100584.41;4986444;28;20491;-79
2022/07/01 02:18:06;;;;;;;0.80;0.80;;;17.40;99.90;;;16.22;100.00;100580.59;4976960;28;20080;-79
2022/07/01 02:20:33;;;;;;;2.55;0.82;;;16.20;99.90;;;16.28;100.00;100586.47;4971587;28;20054;-79
2022/07/01 02:23:00;;;;;;;1.40;1.13;;;16.30;99.90;;;16.19;100.00;100591.34;4988619;28;20042;-78
2022/07/01 02:25:27;;;;;;;2.08;0.73;;;16.30;99.90;;;16.21;100.00;100592.97;4968614;28;20042;-79
2022/07/01 02:27:54;;;;;;;3.05;0.80;;;16.20;99.90;;;16.22;100.00;100602.66;4990127;28;20503;-78
2022/07/01 02:30:21;;;;;;;1.85;1.10;;;16.20;99.90;;;16.05;100.00;100598.13;4972224;28;20813;-78
2022/07/01 02:32:48;;;;;;;1.77;0.90;;;16.10;99.90;;;16.20;100.00;100599.22;4966574;28;20633;-78
2022/07/01 02:35:16;;;;;;;2.33;0.80;;;16.10;99.90;;;16.04;100.00;100595.50;4986137;28;20042;-78
2022/07/01 02:37:43;;;;;;;1.45;0.95;;;16.40;99.90;;;16.06;100.00;100605.16;4956150;28;20042;-79
2022/07/01 02:40:11;;;;;;;1.77;1.05;;;16.10;99.90;;;16.05;100.00;100587.50;4968963;28;20065;-78
2022/07/01 02:42:38;;;;;;;1.20;0.85;;;16.10;99.90;;;16.10;100.00;100588.16;4970830;28;20054;-78
2022/07/01 02:45:07;;;;;;;2.75;1.30;;;16.10;99.90;;;16.02;100.00;100588.47;4967822;28;20062;-79
2022/07/01 02:47:37;;;;;;;1.70;1.08;;;16.00;99.90;;;16.14;100.00;100584.41;4957983;28;20042;-79
2022/07/01 02:50:07;;;;;;;2.42;1.30;;;16.30;99.90;;;15.97;100.00;100587.84;4974143;28;20057;-79
2022/07/01 02:52:36;;;;;;;3.20;1.25;;;16.00;99.90;;;16.08;100.00;100592.66;4987274;28;20120;-79
2022/07/01 02:55:06;;;;;;;2.13;1.35;;;16.10;99.90;;;16.07;100.00;100596.25;4961047;28;20487;-79
2022/07/01 02:57:33;;;;;;;3.28;1.55;;;16.00;99.90;;;15.96;100.00;100593.19;4990626;28;20081;-79
2022/07/01 03:00:02;;;;;;;2.78;1.20;;;16.40;99.90;;;15.88;100.00;100572.25;4976562;28;20051;-80
2022/07/01 03:02:29;;;;;;;3.55;1.40;;;16.00;99.90;;;15.93;100.00;100580.94;4977407;28;20046;-79
2022/07/01 03:04:56;;;;;;;2.20;1.20;;;16.00;99.90;;;15.81;100.00;100584.94;4962355;28;20042;-79
2022/07/01 03:07:23;;;;;;;2.42;1.95;;;16.30;99.90;;;15.90;100.00;100574.91;4981945;28;20053;-78
2022/07/01 03:09:51;;;;;;;2.97;1.65;;;15.90;99.90;;;16.07;100.00;100579.44;4972426;28;20058;-79
2022/07/01 03:12:24;;;;;;;2.60;1.70;;;17.50;99.90;;;15.94;100.00;100572.03;4960952;28;20046;-79
2022/07/01 03:14:52;;;;;;;2.85;2.20;;;15.90;99.90;;;15.96;100.00;100570.19;4974831;28;20500;-78
2022/07/01 03:17:19;;;;;;;3.10;2.45;;;15.90;99.90;;;15.99;100.00;100585.09;4976567;28;20098;-79
2022/07/01 03:19:47;;;;;;;3.85;2.80;;;15.90;99.90;;;15.92;100.00;100604.88;4959086;28;20038;-79
2022/07/01 03:22:14;;;;;;;4.18;2.65;;;15.90;99.90;;;15.95;100.00;100612.69;4972799;28;20537;-79
2022/07/01 03:24:41;;;;;;;2.90;2.08;;;17.10;99.90;;;15.93;100.00;100618.09;4996459;28;20050;-79
2022/07/01 03:27:09;;;;;;;2.40;1.90;;;15.90;99.90;;;16.00;100.00;100597.44;4980639;28;20047;-79
2022/07/01 03:29:36;;;;;;;2.30;1.85;;;15.90;99.90;;;16.04;100.00;100577.81;4992459;28;20066;-79
2022/07/01 03:32:03;;;;;;;2.70;2.03;;;15.90;99.90;;;15.87;100.00;100573.19;4995204;28;20054;-79
2022/07/01 03:34:30;;;;;;;3.58;2.67;;;15.90;99.90;;;15.97;100.00;100594.91;4963857;28;20042;-81
2022/07/01 03:37:00;;;;;;;6.95;4.15;;;15.40;99.90;;;15.88;100.00;100594.38;4973204;28;20077;-77
2022/07/01 03:39:28;;;;;;;4.20;3.80;;;15.90;99.90;;;15.73;100.00;100582.59;4969060;28;20407;-77
2022/07/01 03:41:55;;;;;;;4.20;3.45;;;15.90;99.90;;;15.72;100.00;100583.53;4975384;28;20141;-78
2022/07/01 03:44:22;;;;;;;3.75;2.28;;;16.20;99.90;;;15.73;100.00;100589.72;4974952;28;20038;-77
2022/07/01 03:46:49;;;;;;;3.78;1.70;;;16.50;99.90;;;15.73;100.00;100597.66;4972922;28;20030;-76
2022/07/01 03:49:16;;;;;;;4.80;2.00;;;16.00;99.90;;;15.62;100.00;100618.47;4969987;28;20133;-77
2022/07/01 03:51:43;;;;;;;3.75;3.03;;;15.80;99.90;;;15.61;100.00;100638.81;4970334;28;20098;-77
2022/07/01 03:57:04;;;;;;;4.28;2.85;;;15.40;99.90;;;15.69;100.00;100617.28;4970295;28;20038;-77
2022/07/01 03:59:35;;;;;;;6.55;3.58;;;15.60;99.90;;;15.59;100.00;100619.44;4970233;28;20060;-77
2022/07/01 04:02:04;;;;;;;4.05;2.60;;;15.60;99.90;;;15.74;100.00;100623.25;4983133;28;20052;-76
2022/07/01 04:04:32;;;;;;;4.18;2.22;;;15.60;99.90;;;15.90;100.00;100617.34;4971200;28;20042;-77
2022/07/01 04:07:05;;;;;;;4.35;2.30;;;15.80;99.90;;;15.83;100.00;100606.09;4969837;28;20129;-77
2022/07/01 04:09:33;;;;;;;3.90;1.88;;;15.70;99.90;;;15.87;100.00;100607.69;4968523;28;20114;-77
2022/07/01 04:12:00;;;;;;;2.72;2.53;;;15.70;99.90;;;15.76;100.00;100624.06;4985932;28;20055;-77
2022/07/01 04:14:27;;;;;;;4.18;2.03;;;15.90;99.90;;;15.80;100.00;100648.69;4972221;28;20053;-78
2022/07/01 04:16:54;;;;;;;3.85;1.98;;;15.70;99.90;;;15.73;100.00;100648.06;4971980;28;20049;-77
2022/07/01 04:19:22;;;;;;;2.67;1.70;;;15.80;99.90;;;15.69;100.00;100660.59;4985419;28;20039;-78
2022/07/01 04:24:34;;;;;;;2.88;2.00;;;15.80;99.90;;;15.77;100.00;100678.84;4984290;28;20038;-77
2022/07/01 04:27:01;;;;;;;2.70;2.30;;;15.80;99.90;;;15.74;100.00;100681.63;4982463;28;20380;-77
2022/07/01 04:29:31;;;;;;;3.63;2.50;;;15.80;99.90;;;15.66;100.00;100687.22;4985502;28;20043;-77
2022/07/01 04:31:59;;;;;;;4.65;2.63;;;15.80;99.90;;;15.66;100.00;100687.22;4984988;28;20042;-77
2022/07/01 04:34:26;;;;;;;4.88;2.22;;;15.70;99.90;;;15.78;100.00;100677.06;4970566;28;20488;-78
2022/07/01 04:36:53;;;;;;;2.72;2.40;;;15.70;99.90;;;15.78;100.00;100675.25;4985662;28;20587;-77
2022/07/01 04:39:20;;;;;;;2.38;1.83;;;15.70;99.90;;;15.76;100.00;100695.69;4986348;28;20034;-77
2022/07/01 04:41:59;;;;;;;4.18;2.38;;;16.50;99.90;;;15.72;100.00;100694.09;4969538;28;20046;-77
2022/07/01 04:44:31;;;;;;;1.95;1.75;;;16.70;99.90;;;15.82;100.00;100684.81;4982563;28;20038;-77
2022/07/01 04:47:00;;;;;;;4.22;1.70;;;15.70;99.90;;;15.80;100.00;100684.00;4981235;28;20046;-77
2022/07/01 04:49:27;;;;;;;3.90;1.58;;;15.70;99.90;;;15.93;100.00;100692.38;4980067;28;20118;-77
2022/07/01 04:51:56;;;;;;;1.60;1.50;;;15.80;99.90;;;15.90;100.00;100688.97;4979538;28;20047;-77
2022/07/01 04:54:23;;;;;;;2.50;1.50;;;15.80;99.90;;;15.95;100.00;100705.56;4984233;28;20496;-77
2022/07/01 04:56:51;;;;;;;1.33;1.23;;;15.80;99.90;;;15.89;100.00;100698.72;4969131;28;20093;-77
2022/07/01 04:59:19;;;;;;;1.92;1.20;;;15.90;99.90;;;15.91;100.00;100696.00;4967742;28;20045;-77
2022/07/01 05:01:50;;;;;;;2.38;1.30;;;15.90;99.90;;;15.93;100.00;100713.59;4978138;28;20125;-77
2022/07/01 05:04:18;;;;;;;2.67;1.27;;;15.90;99.90;;;15.92;100.00;100719.84;4977628;28;20108;-77
2022/07/01 05:06:46;;;;;;;3.15;1.40;;;15.90;99.90;;;16.01;100.00;100708.84;4982356;28;20054;-75
2022/07/01 05:09:13;;;;;;;3.47;1.45;;;16.50;99.90;;;15.98;100.00;100724.88;4968143;28;20649;-76
2022/07/01 05:11:41;;;;;;;2.08;1.88;;;15.90;99.90;;;15.99;100.00;100726.63;4951092;28;20038;-76
2022/07/01 05:14:09;;;;;;;1.75;1.40;;;16.90;99.90;;;15.96;100.00;100717.91;4987822;28;20134;-76
2022/07/01 05:16:36;;;;;;;3.45;2.05;;;15.90;99.90;;;15.90;100.00;100710.22;4970581;28;20048;-75
2022/07/01 05:22:01;;;;;;;2.75;1.77;;;15.90;99.90;;;15.99;100.00;100702.72;4986770;28;20069;-76
2022/07/01 05:24:32;;;;;;;2.10;1.85;;;15.90;99.90;;;15.94;100.00;100698.53;4971458;28;20066;-76
2022/07/01 05:27:01;;;;;;;;;;;15.90;99.90;;;15.93;100.00;100696.81;4969862;28;21063;-76
2022/07/01 05:29:28;;;;;;;2.17;1.67;;;15.90;99.90;;;15.98;100.00;100703.66;4979328;28;19929;-76
2022/07/01 05:31:56;;;;;;;3.05;1.92;;;15.90;99.90;;;15.99;100.00;100713.34;4982707;28;20139;-77
2022/07/01 05:34:23;;;;;;;2.50;1.50;;;15.90;99.90;;;16.02;100.00;100725.63;4968468;28;20068;-76
2022/07/01 05:36:50;;;;;;;2.50;1.58;;;15.90;99.90;;;15.95;100.00;100721.50;4975930;28;20766;-77
2022/07/01 05:39:17;;;;;;;2.63;2.22;;;16.00;99.90;;;15.96;100.00;100716.13;4966720;28;20049;-76
2022/07/01 05:41:45;;;;;;;5.18;1.60;;;15.90;99.90;;;15.98;100.00;100711.63;4980197;28;20540;-77
2022/07/01 05:44:12;;;;;;;1.63;1.52;;;15.90;99.90;;;16.07;100.00;100702.41;4965658;28;20097;-77
2022/07/01 05:46:39;;;;;;;1.75;1.55;;;15.90;99.90;;;16.07;100.00;100713.03;4980059;28;20034;-76
2022/07/01 05:49:06;;;;;;;1.80;1.67;;;16.00;99.90;;;16.10;100.00;100712.06;4985465;28;20125;-78
2022/07/01 05:51:34;;;;;;;1.63;1.52;;;16.00;99.90;;;16.06;100.00;100718.38;4969522;28;20401;-78
2022/07/01 05:54:03;;;;;;;1.63;1.40;;;16.10;99.90;;;16.08;100.00;100713.88;4960714;28;20054;-78
2022/07/01 05:56:31;;;;;;;2.00;1.38;;;16.00;99.90;;;16.10;100.00;100723.50;4968876;28;20132;-81
2022/07/01 05:58:58;;;;;;;1.98;1.40;;;16.00;99.90;;;16.07;100.00;100736.91;4970586;28;20140;-82
2022/07/01 06:01:25;;;;;;;3.10;1.75;;;17.60;99.90;;;16.07;100.00;100733.38;4966495;28;20039;-77
2022/07/01 06:03:52;;;;;;;2.33;1.50;;;16.20;99.90;;;16.03;100.00;100735.31;4971357;28;20117;-76
2022/07/01 06:06:20;;;;;;;3.78;3.05;;;16.00;99.90;;;16.01;100.00;100731.88;4986060;28;20130;-80
2022/07/01 06:08:47;;;;;;;3.50;2.00;;;16.00;99.90;;;16.01;100.00;100737.19;4961415;28;20054;-77
2022/07/01 06:11:14;;;;;;;2.88;1.90;;;15.90;99.90;;;16.05;100.00;100740.56;4974386;28;20065;-81
2022/07/01 06:13:44;;;;;;;2.55;1.92;;;16.00;99.90;;;15.96;100.00;100726.75;4974563;28;20058;-83
2022/07/01 06:16:11;;;;;;;1.80;1.40;;;15.90;99.90;;;15.86;100.00;100743.91;4973462;28;20042;-81
2022/07/01 06:18:41;;;;;;;3.53;1.40;;;17.10;99.90;;;15.81;100.00;100748.56;4986261;28;20052;-77
2022/07/01 06:21:08;;;;;;;2.20;1.33;;;16.00;99.90;;;15.87;100.00;100751.84;4970986;28;20495;-78
2022/07/01 06:23:35;;;;;;;3.13;1.70;;;17.50;99.90;;;15.88;100.00;100766.81;4988402;28;20053;-79
2022/07/01 06:26:03;;;;;;;2.72;1.23;;;16.00;99.90;;;15.98;100.00;100770.00;4977814;28;20046;-78
2022/07/01 06:28:30;;;;;;;1.92;1.50;;;15.90;99.90;;;16.00;100.00;100778.75;4964639;28;20039;-83
2022/07/01 06:30:58;;;;;;;1.60;1.50;;;15.90;99.90;;;16.02;100.00;100782.22;4986723;28;20412;-80
2022/07/01 06:33:29;;;;;;;2.28;1.75;;;15.90;99.90;;;16.00;100.00;100781.41;4966760;28;20035;-81
2022/07/01 06:35:57;;;;;;;1.80;1.30;;;16.00;99.90;;;15.99;100.00;100779.69;4969846;28;20057;-79
2022/07/01 06:38:24;;;;;;;1.85;1.48;;;16.00;99.90;;;15.99;100.00;100762.88;4966670;28;20038;-81
2022/07/01 06:44:02;;;;;;;3.47;1.30;;;16.00;99.90;;;16.23;100.00;100768.97;4922819;29;20146;-79
2022/07/01 06:46:30;;;;;;;2.67;1.60;;;16.10;99.90;;;16.27;100.00;100770.59;4927671;29;20050;-80
2022/07/01 06:48:58;;;;;;;4.13;1.70;;;16.10;99.90;;;16.23;100.00;100771.63;4926869;29;20056;-80
2022/07/01 06:51:27;;;;;;;4.28;1.60;;;16.10;99.90;;;16.22;100.00;100763.75;4914616;29;20096;-80
2022/07/01 06:53:54;;;;;;;4.50;1.70;;;16.20;99.90;;;16.29;100.00;100770.53;4939182;29;20066;-80
2022/07/01 06:56:21;;;;;;;1.52;1.42;;;16.60;99.90;;;16.26;100.00;100776.84;4914383;29;20058;-79
2022/07/01 06:58:48;;;;;;;2.35;1.60;;;16.20;99.90;;;16.35;100.00;100769.41;4933095;29;20047;-80
2022/07/01 07:01:16;;;;;;;2.05;1.48;;;17.40;99.90;;;16.39;100.00;100779.84;4912124;29;20131;-79
2022/07/01 07:03:43;;;;;;;1.92;1.30;;;16.30;99.90;;;16.33;100.00;100793.38;4933435;29;20077;-81
2022/07/01 07:06:10;;;;;;;1.63;1.50;;;16.30;99.90;;;16.31;100.00;100779.28;4934862;29;20074;-79
2022/07/01 07:08:38;;;;;;;1.77;1.60;;;16.30;99.90;;;16.25;100.00;100787.50;4915337;29;20055;-81
2022/07/01 07:11:06;;;;;;;1.88;1.35;;;16.30;99.90;;;16.20;100.00;100785.03;4918190;29;20487;-79
2022/07/01 07:13:34;;;;;;;3.00;1.55;;;16.30;99.90;;;16.20;100.00;100794.81;4934111;29;20130;-79
2022/07/01 07:16:02;;;;;;;2.15;1.20;;;16.60;99.90;;;16.28;100.00;100792.69;4970062;28;20053;-79
2022/07/01 07:18:29;;;;;;;1.95;1.40;;;16.20;99.90;;;16.29;100.00;100782.03;4957290;28;20049;-81
2022/07/01 07:20:56;;;;;;;3.00;1.73;;;16.20;99.90;;;16.17;100.00;100777.22;4985849;28;20129;-79
2022/07/01 07:23:26;;;;;;;;;;;16.30;99.90;;;16.15;100.00;100776.41;4958687;28;20109;-79
2022/07/01 07:25:53;;;;;;;1.70;1.60;;;16.30;99.90;;;16.14;100.00;100786.16;4968741;28;19933;-79
2022/07/01 07:28:20;;;;;;;1.80;1.52;;;16.30;99.90;;;16.22;100.00;100779.69;4972753;28;20074;-82
2022/07/01 07:30:47;;;;;;;3.38;2.00;;;16.20;99.90;;;16.33;100.00;100776.56;4957070;28;20056;-81
2022/07/01 07:33:14;;;;;;;3.72;2.15;;;16.30;99.90;;;16.35;100.00;100796.84;4972077;28;20684;-80
2022/07/01 07:35:41;;;;;;;2.92;1.90;;;16.30;99.90;;;16.35;100.00;100793.31;4964789;28;20064;-81
2022/07/01 07:38:10;;;;;;;2.08;1.88;;;16.30;99.90;;;16.33;100.00;100788.09;4973105;28;20129;-81
2022/07/01 07:40:37;;;;;;;2.00;1.80;;;17.80;99.90;;;16.40;100.00;100778.06;4972350;28;20046;-78
2022/07/01 07:43:05;;;;;;;2.15;1.58;;;16.30;99.90;;;16.18;100.00;100776.28;4971846;28;20069;-82
2022/07/01 07:45:33;;;;;;;2.17;1.73;;;16.30;99.90;;;16.29;100.00;100773.19;4972391;28;20209;-81
2022/07/01 07:48:01;;;;;;;1.52;1.40;;;16.30;99.90;;;16.36;100.00;100763.16;4972852;28;20050;-82
2022/07/01 07:50:28;;;;;;;2.17;1.70;;;16.30;99.90;;;16.44;100.00;100775.19;4971643;28;20074;-83
2022/07/01 07:52:55;;;;;;;3.33;1.77;;;17.10;99.90;;;16.48;100.00;100791.88;4989502;28;20038;-82
2022/07/01 07:55:23;;;;;;;3.20;1.50;;;16.40;99.90;;;16.49;100.00;100780.31;4965874;28;20515;-82
2022/07/01 07:57:50;;;;;;;2.08;1.52;;;16.40;99.90;;;16.50;100.00;100774.06;4979438;28;20084;-82
2022/07/01 08:00:17;;;;;;;2.72;1.48;;;16.50;99.90;;;16.57;100.00;100775.56;4982966;28;20046;-79
2022/07/01 08:02:44;;;;;;;1.52;1.30;;;16.50;99.90;;;16.58;100.00;100779.06;4973175;28;20117;-81
2022/07/01 08:05:12;;;;;;;1.85;1.50;;;16.50;99.90;;;16.54;100.00;100778.31;4957748;28;20054;-80
2022/07/01 08:07:42;;;;;;;1.92;1.73;;;16.50;99.90;;;16.60;100.00;100782.50;4971835;28;20038;-81
2022/07/01 08:10:12;;;;;;;2.30;1.38;;;16.50;99.90;;;16.62;100.00;100806.38;4965020;28;20100;-80
2022/07/01 08:12:40;;;;;;;2.00;1.42;;;16.60;99.90;;;16.54;100.00;100807.53;4972061;28;20137;-80
2022/07/01 08:15:09;;;;;;;4.18;2.58;;;16.50;99.90;;;16.51;100.00;100807.66;4957074;28;20127;-79
2022/07/01 08:17:37;;;;;;;2.38;1.67;;;16.60;99.90;;;16.50;100.00;100821.88;4971907;28;20050;-82
2022/07/01 08:20:05;;;;;;;4.00;1.85;;;16.50;99.90;;;16.47;100.00;100837.06;4972986;28;20388;-79
2022/07/01 08:22:33;;;;;;;3.40;1.90;;;16.50;99.90;;;16.33;100.00;100827.91;4973505;28;20042;-80
2022/07/01 08:25:00;;;;;;;2.47;1.90;;;16.50;99.90;;;16.32;100.00;100833.25;4983320;28;20119;-78
2022/07/01 08:27:27;;;;;;;4.38;1.60;;;16.40;99.90;;;16.18;100.00;100834.69;4969641;28;20050;-80
2022/07/01 08:29:54;;;;;;;3.28;1.95;;;16.30;99.90;;;16.31;100.00;100850.97;4951741;28;20048;-80
2022/07/01 08:32:22;;;;;;;3.10;1.70;;;16.30;99.90;;;16.13;100.00;100848.13;4966194;28;20447;-81
2022/07/01 08:34:49;;;;;;;3.15;1.92;;;16.30;99.90;;;16.04;100.00;100831.72;4988019;28;20043;-80
2022/07/01 08:37:16;;;;;;;2.10;1.85;;;16.20;99.90;;;16.22;100.00;100865.47;4982556;28;20066;-79
2022/07/01 08:39:43;;;;;;;4.15;1.85;;;16.20;99.90;;;16.36;100.00;100864.06;4972956;28;20543;-77
2022/07/01 08:42:10;;;;;;;2.83;1.60;;;16.20;99.90;;;16.32;100.00;100866.00;4975269;28;20074;-80
2022/07/01 08:44:37;;;;;;;5.40;1.80;;;16.30;99.90;;;16.33;100.00;100873.03;4973202;28;21384;-80
2022/07/01 08:47:04;;;;;;;2.15;1.95;;;16.30;99.90;;;16.38;100.00;100873.72;4991917;28;20035;-81
2022/07/01 08:49:32;;;;;;;5.63;1.80;;;16.30;99.90;;;16.43;100.00;100876.19;4974858;28;20133;-80
2022/07/01 08:51:59;;;;;;;2.83;1.80;;;16.40;99.90;;;16.48;100.00;100874.19;4975755;28;20073;-79
2022/07/01 08:54:26;;;;;;;3.05;1.67;;;16.70;99.90;;;16.52;100.00;100881.09;4969567;28;20050;-80
2022/07/01 08:56:53;;;;;;;3.55;2.20;;;16.50;99.90;;;16.54;100.00;100873.94;4983982;28;20152;-79
2022/07/01 08:59:27;;;;;;;3.75;1.80;;;16.50;99.90;;;16.62;100.00;100870.13;4975023;28;20077;-77
2022/07/01 09:02:01;;;;;;;3.42;2.00;;;16.60;99.90;;;16.79;100.00;100864.97;4974696;28;20476;-80
2022/07/01 09:04:29;;;;;;;2.90;2.35;;;16.70;99.90;;;16.91;100.00;100868.88;4989273;28;20057;-79
2022/07/01 09:07:07;;;;;;;2.92;2.30;;;16.80;99.90;;;17.08;100.00;100873.53;4973143;28;20058;-77
2022/07/01 09:09:37;;;;;;;3.85;1.63;;;16.90;99.90;;;17.06;100.00;100872.72;4966386;28;20054;-80
2022/07/01 09:12:05;;;;;;;2.47;2.00;;;17.00;99.90;;;17.14;100.00;100877.72;4986326;28;20050;-79
2022/07/01 09:14:34;;;;;;;4.65;2.10;;;17.10;99.90;;;17.27;100.00;100865.59;4956047;28;20050;-80
2022/07/01 09:17:06;;;;;;;2.42;1.90;;;17.10;99.90;;;17.47;100.00;100876.25;4988394;28;20038;-78
2022/07/01 09:19:37;;;;;;;3.78;2.00;;;18.70;99.90;;;17.53;100.00;100876.00;4967210;28;20141;-80
2022/07/01 09:22:12;;;;;;;2.10;1.52;;;17.40;99.90;;;17.81;100.00;100867.63;4973716;28;20045;-79
2022/07/01 09:24:43;;;;;;;2.15;1.95;;;18.10;99.90;;;17.88;100.00;100868.19;4972749;28;20058;-79
2022/07/01 09:27:13;;;;;;;3.85;2.03;;;17.70;99.90;;;18.00;100.00;100883.59;4986830;28;20971;-78
2022/07/01 09:29:46;;;;;;;3.47;1.60;;;17.80;99.90;;;18.04;100.00;100868.38;4970696;28;20043;-79
2022/07/01 09:32:20;;;;;;;6.00;2.22;;;17.80;99.90;;;17.86;100.00;100862.94;4989407;28;20073;-80
2022/07/01 09:34:53;;;;;;;3.65;1.98;;;17.90;99.90;;;17.81;100.00;100870.28;4985929;28;20070;-78
2022/07/01 09:37:25;;;;;;;1.92;1.42;;;17.90;99.90;;;18.04;100.00;100879.03;4984385;28;20038;-80
2022/07/01 09:39:55;;;;;;;3.33;1.83;;;18.00;99.90;;;17.98;100.00;100880.16;4968340;28;20506;-77
2022/07/01 09:42:25;;;;;;;2.45;1.50;;;18.00;99.90;;;18.33;100.00;100874.09;4954757;28;20594;-80
2022/07/01 09:45:07;;;;;;;;;;;18.10;99.90;;;18.47;100.00;100870.75;4973716;28;20047;-78
2022/07/01 09:47:38;;;;;;;2.78;1.77;;;18.20;99.90;;;18.66;100.00;100875.16;4973603;28;19933;-80
2022/07/01 09:50:07;;;;;;;4.60;1.77;;;18.40;99.90;;;18.62;100.00;100869.13;4954404;28;20058;-79
2022/07/01 09:52:35;;;;;;;2.75;1.45;;;18.50;99.90;;;18.52;100.00;100870.53;4986966;28;20046;-80
2022/07/01 09:55:06;;;;;;;2.65;1.30;;;18.60;99.90;;;18.39;100.00;100863.16;4972356;28;20050;-78
2022/07/01 09:57:34;;;;;;;2.17;1.40;;;18.50;98.90;;;18.62;100.00;100868.28;4958495;28;21254;-79
2022/07/01 10:00:03;;;;;;;1.60;1.40;;;18.50;99.80;;;18.53;100.00;100858.94;4959719;28;20800;-77
2022/07/01 10:02:34;;;;;;;2.17;1.67;;;18.50;99.80;;;18.38;100.00;100864.09;4981639;28;20093;-76
2022/07/01 10:05:09;;;;;;;2.40;1.52;;;18.40;99.10;;;18.49;100.00;100884.00;4972529;28;20046;-77
2022/07/01 10:07:52;;;;;;;3.35;1.85;;;18.50;99.90;;;18.54;100.00;100880.16;4970853;28;20126;-78
2022/07/01 10:10:48;;;;;;;4.78;1.80;;;18.50;99.90;;;18.89;100.00;100881.13;4984567;28;20062;-78
2022/07/01 10:13:21;;;;;;;2.67;1.50;;;18.60;99.90;;;19.05;100.00;100876.78;4981077;28;20050;-78
2022/07/01 10:15:48;;;;;;;2.58;1.50;;;18.80;99.90;;;19.07;100.00;100871.38;4965132;28;20242;-77
2022/07/01 10:18:27;;;;;;;2.05;1.35;;;18.90;99.90;;;19.13;100.00;100882.56;4978504;28;20038;-76
2022/07/01 10:20:56;;;;;;;2.78;1.60;;;19.00;98.70;;;19.16;100.00;100880.69;4979954;28;20066;-76
2022/07/01 10:23:28;;;;;;;4.20;1.90;;;19.10;98.80;;;19.20;100.00;100879.59;4979213;28;20053;-76
2022/07/01 10:26:04;;;;;;;3.72;1.80;;;19.20;99.10;;;18.90;100.00;100882.88;4980956;28;21420;-77